Buffalo, WY

8:06 PM MDT on September 15, 2014 (GMT -0600)
Esponda Ranch | Change Station
CLOSE
Current Station
Personal Weather Station
Location: Buffalo, WY
Elevation: 4665 ft
Nearby Weather Stations

Elev 4665 ft 44.32 °N, 106.67 °W | Updated 2 minutes ago

Clear
Clear
56.0 °F
Feels Like 56.0 °F
N
1.0
Wind Variable Wind from SSW
Gusts 3.0 mph

Today
High -- | Low -- °F
--% Chance of Precip.
Yesterday
High -- | Low -- °F
Precip. -- in
6:45 AM 7:17 PM
Waning Gibbous, 50% visible
Pressure 30.08 in
Visibility 10.0 miles
Clouds Clear
Dew Point 48 °F
Humidity 75%
Rainfall 0.00 in
Snow Depth 0 in , 0 in , 3 in
UV 0 out of 12
Pollen 5.50 out of 12
Air Quality Not available.
Flu Activity Not available.
METAR KBYG 160153Z AUTO 24006KT 10SM CLR 14/07 A3014 RMK AO2 SLP184 T01390072

More Conditions Fewer Conditions

Pressure 30.08 in
Visibility 10.0 miles
Clouds Clear
Dew Point 48 °F
Humidity 75%
Rainfall 0.00 in
Snow Depth 0 in , 0 in , 3 in
UV 0 out of 12
Pollen 5.50 out of 12
Air Quality Not available.
Flu Activity Not available.
METAR KBYG 160153Z AUTO 24006KT 10SM CLR 14/07 A3014 RMK AO2 SLP184 T01390072

More Conditions Fewer Conditions

10-Day Weather Forecast

Almanac

Astronomy

Sep. 15, 2014 Rise Set
Actual Time 6:45 AM MDT 7:17 PM MDT
Civil Twilight 6:16 AM MDT 7:46 PM MDT
Nautical Twilight 5:42 AM MDT 8:20 PM MDT
Astronomical Twilight 5:06 AM MDT 8:56 PM MDT
Moon 11:49 PM MDT (9/15) 2:01 PM MDT (9/15)
Length of Visible Light 13h 29m
Length of Day
12h 31m
Tomorrow will be 3m 1s shorter.
Waning Gibbous, 50% of the Moon is Illuminated
Today
Waning Gibbous
Sep 24
New
Oct 1
First Quarter
Oct 8
Full
Oct 15
Last Quarter

Today's Extremes

State Highs State Lows

Community

WunderPhotos

Upload Photos

1,753,650 photos uploaded!

WunderBlogs® & News

Nearby

Snow Depth

Station Depth Elevation
Little Warm 0 in 9370 ft
Loomis Park 0 in 8240 ft
Powder River Pass 0 in 9480 ft
Willow Creek 3 in 8450 ft
South Brush Creek 0 in 8440 ft

Earthquake Activity

City Distance Mag. Time & Date
No recent earthquake activity has been reported nearby.
Minimum magnitude displayed is 2.5.

Coastal Water Temperatures

Place Temperature
No Stations Reporting

Nearby Weather Stations